TimePDT,TemperatureF,Dew PointF,Humidity,Sea Level PressureIn,VisibilityMPH,Wind Direction,Wind SpeedMPH,Gust SpeedMPH,PrecipitationIn,Events,Conditions,WindDirDegrees,DateUTC
12:53 AM,28.0,21.9,78,30.00,10.0,Calm,Calm,-,N/A,,Clear,0,2014-03-22 07:53:00
1:53 AM,28.0,21.0,75,30.01,10.0,South,3.5,-,N/A,,Clear,170,2014-03-22 08:53:00
2:53 AM,27.0,19.9,75,30.01,10.0,SSW,4.6,-,N/A,,Clear,200,2014-03-22 09:53:00
3:53 AM,27.0,19.0,72,30.02,10.0,South,3.5,-,N/A,,Clear,190,2014-03-22 10:53:00
4:53 AM,26.1,18.0,71,30.03,10.0,South,3.5,-,N/A,,Clear,170,2014-03-22 11:53:00
5:53 AM,25.0,17.1,72,30.06,10.0,SSE,5.8,-,N/A,,Clear,160,2014-03-22 12:53:00
6:53 AM,25.0,18.0,75,30.09,10.0,SSW,5.8,-,N/A,,Clear,200,2014-03-22 13:53:00
7:53 AM,26.1,18.0,71,30.13,10.0,WSW,5.8,-,N/A,,Clear,240,2014-03-22 14:53:00
8:53 AM,35.1,21.9,59,30.11,10.0,Variable,4.6,-,N/A,,Clear,0,2014-03-22 15:53:00
9:53 AM,43.0,17.1,35,30.11,10.0,Calm,Calm,-,N/A,,Clear,0,2014-03-22 16:53:00
10:53 AM,46.9,16.0,29,30.10,10.0,NE,5.8,-,N/A,,Clear,50,2014-03-22 17:53:00
11:53 AM,48.9,17.1,28,30.10,10.0,North,-9999.0,-,N/A,,Clear,0,2014-03-22 18:53:00
12:53 PM,51.1,16.0,25,30.10,10.0,Variable,3.5,-,N/A,,Clear,0,2014-03-22 19:53:00
1:53 PM,52.0,19.9,28,30.09,10.0,Variable,4.6,-,N/A,,Clear,0,2014-03-22 20:53:00
2:53 PM,52.0,17.1,25,30.08,10.0,Variable,6.9,-,N/A,,Clear,0,2014-03-22 21:53:00
3:53 PM,54.0,18.0,24,30.06,10.0,Variable,3.5,-,N/A,,Clear,0,2014-03-22 22:53:00
4:53 PM,53.1,15.1,22,30.06,10.0,NNE,6.9,-,N/A,,Clear,20,2014-03-22 23:53:00
5:53 PM,50.0,19.9,31,30.08,10.0,Calm,Calm,-,N/A,,Mostly Cloudy,0,2014-03-23 00:53:00
6:53 PM,46.9,26.1,44,30.10,10.0,Calm,Calm,-,N/A,,Mostly Cloudy,0,2014-03-23 01:53:00
7:53 PM,43.0,27.0,53,30.12,10.0,Calm,Calm,-,N/A,,Clear,0,2014-03-23 02:53:00
8:53 PM,41.0,25.0,53,30.13,10.0,Calm,Calm,-,N/A,,Clear,0,2014-03-23 03:53:00
9:53 PM,37.0,25.0,62,30.12,10.0,Calm,Calm,-,N/A,,Clear,0,2014-03-23 04:53:00
10:53 PM,34.0,24.1,67,30.13,10.0,Calm,Calm,-,N/A,,Clear,0,2014-03-23 05:53:00
11:53 PM,32.0,24.1,73,30.14,10.0,Calm,Calm,-,N/A,,Clear,0,2014-03-23 06:53:00